createdAt,value
2023-05-08T00:01:04.504Z,8.02
2023-05-08T00:03:34.207Z,12.68
2023-05-08T00:06:06.316Z,8.85
2023-05-08T00:08:37.052Z,8.05
2023-05-08T00:11:06.232Z,11.82
2023-05-08T00:13:35.574Z,8.48
2023-05-08T00:16:04.712Z,12.30
2023-05-08T00:18:34.013Z,9.57
2023-05-08T00:21:03.074Z,12.57
2023-05-08T00:23:32.385Z,12.20
2023-05-08T00:26:02.875Z,11.13
2023-05-08T00:28:32.152Z,14.23
2023-05-08T00:31:02.496Z,10.88
2023-05-08T00:33:31.905Z,8.95
2023-05-08T00:36:01.752Z,9.10
2023-05-08T00:41:02.936Z,12.70
2023-05-08T00:43:32.346Z,10.85
2023-05-08T00:46:02.927Z,12.68
2023-05-08T00:48:34.076Z,9.48
2023-05-08T00:51:06.344Z,9.95
2023-05-08T00:53:39.894Z,10.55
2023-05-08T00:56:12.311Z,9.00
2023-05-08T00:58:42.417Z,11.07
2023-05-08T01:01:12.233Z,10.82
2023-05-08T01:03:42.056Z,13.55
2023-05-08T01:06:11.279Z,7.40
2023-05-08T01:08:40.930Z,9.95
2023-05-08T01:11:18.624Z,10.00
2023-05-08T01:13:53.336Z,9.82
2023-05-08T01:16:31.665Z,7.55
2023-05-08T01:19:08.460Z,11.10
2023-05-08T01:21:44.461Z,8.85
2023-05-08T01:24:37.394Z,9.07
2023-05-08T01:27:40.489Z,9.05
2023-05-08T01:30:40.359Z,9.02
2023-05-08T01:33:22.056Z,10.40
2023-05-08T01:35:54.870Z,9.75
2023-05-08T01:38:32.008Z,9.10
2023-05-08T01:41:09.989Z,8.93
2023-05-08T01:43:47.970Z,8.02
2023-05-08T01:46:23.879Z,11.93
2023-05-08T01:49:01.660Z,9.23
2023-05-08T01:51:38.472Z,13.95
2023-05-08T01:54:12.280Z,11.65
2023-05-08T01:56:45.663Z,9.40
2023-05-08T01:59:18.335Z,7.88
2023-05-08T02:01:50.601Z,8.60
2023-05-08T02:04:23.157Z,11.80
2023-05-08T02:06:53.689Z,9.27
2023-05-08T02:09:24.442Z,10.70
2023-05-08T02:11:56.580Z,10.80
2023-05-08T02:14:27.154Z,12.15
2023-05-08T02:16:58.492Z,11.98
2023-05-08T02:19:31.084Z,13.25
2023-05-08T02:22:01.782Z,13.73
2023-05-08T02:27:02.816Z,13.80
2023-05-08T02:29:32.817Z,12.38
2023-05-08T02:34:33.882Z,11.90
2023-05-08T02:37:04.810Z,11.68
2023-05-08T02:39:36.674Z,10.77
2023-05-08T02:42:06.286Z,9.35
2023-05-08T02:44:35.322Z,12.07
2023-05-08T02:47:15.906Z,16.35
2023-05-08T02:49:53.135Z,12.70
2023-05-08T02:52:28.720Z,13.63
2023-05-08T02:55:00.927Z,14.65
2023-05-08T02:57:40.818Z,12.23
2023-05-08T03:00:18.431Z,16.97
2023-05-08T03:02:54.145Z,13.15
2023-05-08T03:05:31.008Z,11.25
2023-05-08T03:08:04.302Z,12.50
2023-05-08T03:10:37.722Z,18.80
2023-05-08T03:13:10.582Z,9.63
2023-05-08T03:15:46.058Z,10.73
2023-05-08T03:18:19.068Z,13.77
2023-05-08T03:20:52.383Z,10.77
2023-05-08T03:23:23.180Z,14.00
2023-05-08T03:25:53.884Z,14.88
2023-05-08T03:28:24.721Z,14.55
2023-05-08T03:30:57.128Z,13.93
2023-05-08T03:33:27.698Z,16.92
2023-05-08T03:35:58.886Z,14.45
2023-05-08T03:38:29.265Z,12.65
2023-05-08T03:41:00.371Z,12.93
2023-05-08T03:43:30.810Z,15.68
2023-05-08T03:46:00.475Z,12.68
2023-05-08T03:48:30.046Z,14.27
2023-05-08T03:51:02.118Z,19.55
2023-05-08T03:53:32.269Z,11.35
2023-05-08T03:56:03.301Z,15.25
2023-05-08T03:58:39.668Z,13.32
2023-05-08T04:01:14.910Z,12.23
2023-05-08T04:03:55.950Z,19.38
2023-05-08T04:06:42.031Z,17.08
2023-05-08T04:09:24.809Z,15.23
2023-05-08T04:12:01.247Z,14.52
2023-05-08T04:14:34.951Z,19.15
2023-05-08T04:17:08.414Z,17.45
2023-05-08T04:19:44.084Z,14.60
2023-05-08T04:22:16.195Z,20.02
2023-05-08T04:24:49.180Z,16.45
2023-05-08T04:27:19.211Z,20.50
2023-05-08T04:29:48.672Z,18.73
2023-05-08T04:32:18.268Z,30.60
2023-05-08T04:34:47.898Z,33.17
2023-05-08T04:37:27.194Z,27.33
2023-05-08T04:39:57.872Z,31.27
2023-05-08T04:42:27.594Z,17.70
2023-05-08T04:45:00.165Z,30.45
2023-05-08T04:47:29.346Z,29.35
2023-05-08T04:50:00.014Z,25.38
2023-05-08T04:52:33.051Z,50.60
2023-05-08T04:55:02.544Z,38.65
2023-05-08T04:57:34.703Z,25.85
2023-05-08T05:00:05.176Z,27.95
2023-05-08T05:02:37.832Z,24.42
2023-05-08T05:05:08.905Z,32.20
2023-05-08T05:07:39.594Z,28.33
2023-05-08T05:10:10.266Z,20.33
2023-05-08T05:12:39.980Z,18.92
2023-05-08T05:15:10.549Z,16.77
2023-05-08T05:17:41.031Z,25.23
2023-05-08T05:20:11.790Z,31.10
2023-05-08T05:22:42.256Z,26.75
2023-05-08T05:25:12.520Z,32.83
2023-05-08T05:27:42.396Z,24.00
2023-05-08T05:30:13.434Z,28.30
2023-05-08T05:32:43.111Z,25.95
2023-05-08T05:35:13.019Z,27.42
2023-05-08T05:37:44.255Z,13.40
2023-05-08T05:40:14.551Z,16.13
2023-05-08T05:45:15.034Z,12.57
2023-05-08T05:47:50.080Z,20.58
2023-05-08T05:50:22.600Z,16.10
2023-05-08T05:52:54.416Z,20.27
2023-05-08T05:55:23.956Z,26.67
2023-05-08T05:57:53.376Z,14.07
2023-05-08T06:00:23.497Z,18.10
2023-05-08T06:02:57.356Z,20.45
2023-05-08T06:05:26.952Z,13.35
2023-05-08T06:07:57.331Z,20.08
2023-05-08T06:10:27.903Z,19.30
2023-05-08T06:12:57.174Z,22.30
2023-05-08T06:15:27.058Z,20.27
2023-05-08T06:17:57.128Z,11.07
2023-05-08T06:20:26.684Z,18.88
2023-05-08T06:22:57.160Z,15.93
2023-05-08T06:25:28.265Z,20.83
2023-05-08T06:27:57.757Z,11.40
2023-05-08T06:30:27.192Z,12.40
2023-05-08T06:32:56.927Z,20.40
2023-05-08T06:35:26.501Z,18.60
2023-05-08T06:37:57.356Z,15.25
2023-05-08T06:40:26.791Z,14.77
2023-05-08T06:42:55.843Z,15.63
2023-05-08T06:45:25.162Z,14.63
2023-05-08T06:47:54.531Z,16.90
2023-05-08T06:50:23.902Z,13.48
2023-05-08T06:52:53.065Z,19.80
2023-05-08T06:55:24.002Z,13.70
2023-05-08T06:57:53.062Z,14.23
2023-05-08T07:00:22.696Z,13.03
2023-05-08T07:02:51.837Z,13.20
2023-05-08T07:05:21.588Z,14.68
2023-05-08T07:07:50.581Z,9.00
2023-05-08T07:10:21.216Z,11.80
2023-05-08T07:12:52.017Z,13.90
2023-05-08T07:15:26.553Z,10.27
2023-05-08T07:17:56.333Z,7.82
2023-05-08T07:20:25.874Z,9.50
2023-05-08T07:22:55.090Z,12.63
2023-05-08T07:25:24.486Z,10.23
2023-05-08T07:27:55.070Z,15.15
2023-05-08T07:30:24.634Z,9.07
2023-05-08T07:32:53.916Z,10.30
2023-05-08T07:35:23.429Z,7.47
2023-05-08T07:37:52.489Z,8.18
2023-05-08T07:40:21.788Z,8.20
2023-05-08T07:42:50.823Z,15.93
2023-05-08T07:45:21.551Z,9.83
2023-05-08T07:47:51.845Z,9.77
2023-05-08T07:50:21.971Z,8.23
2023-05-08T07:52:51.267Z,6.85
2023-05-08T07:55:21.613Z,9.38
2023-05-08T07:57:50.755Z,10.13
2023-05-08T08:00:21.918Z,10.00
2023-05-08T08:02:51.228Z,12.70
2023-05-08T08:05:20.897Z,12.35
2023-05-08T08:07:50.053Z,12.60
2023-05-08T08:10:19.644Z,10.47
2023-05-08T08:12:48.767Z,11.00
2023-05-08T08:15:18.186Z,7.97
2023-05-08T08:17:49.071Z,9.43
2023-05-08T08:20:18.597Z,8.73
2023-05-08T08:22:48.304Z,8.23
2023-05-08T08:25:18.425Z,9.30
2023-05-08T08:27:47.484Z,8.98
2023-05-08T08:30:20.033Z,6.10
2023-05-08T08:32:50.781Z,6.57
2023-05-08T08:35:20.231Z,4.53
2023-05-08T08:37:49.565Z,3.83
2023-05-08T08:40:19.441Z,3.28
2023-05-08T08:42:48.585Z,4.25
2023-05-08T08:45:17.904Z,4.63
2023-05-08T08:47:49.449Z,6.40
2023-05-08T08:50:24.028Z,7.45
2023-05-08T08:52:57.785Z,6.57
2023-05-08T08:55:27.910Z,7.90
2023-05-08T08:58:08.512Z,6.57
2023-05-08T09:00:39.129Z,6.80
2023-05-08T09:03:08.692Z,5.50
2023-05-08T09:05:39.756Z,6.60
2023-05-08T09:08:09.760Z,5.22
2023-05-08T09:10:39.027Z,5.82
2023-05-08T09:13:08.475Z,10.88
2023-05-08T09:15:37.613Z,8.32
2023-05-08T09:18:07.122Z,4.63
2023-05-08T09:20:38.113Z,4.90
2023-05-08T09:23:08.051Z,5.68
2023-05-08T09:25:43.829Z,5.50
2023-05-08T09:28:18.116Z,8.48
2023-05-08T09:30:52.281Z,3.92
2023-05-08T09:33:22.895Z,6.28
2023-05-08T09:35:53.426Z,7.32
2023-05-08T09:38:36.347Z,3.67
2023-05-08T09:41:09.898Z,4.80
2023-05-08T09:43:39.984Z,4.32
2023-05-08T09:46:26.718Z,3.63
2023-05-08T09:48:57.306Z,5.32
2023-05-08T09:53:59.794Z,4.78
2023-05-08T09:56:39.998Z,7.07
2023-05-08T09:59:26.235Z,4.75
2023-05-08T10:01:56.029Z,5.25
2023-05-08T10:04:34.799Z,4.80
2023-05-08T10:07:05.879Z,6.35
2023-05-08T10:09:46.890Z,4.32
2023-05-08T10:12:20.040Z,5.70
2023-05-08T10:14:50.253Z,4.38
2023-05-08T10:17:26.862Z,4.60
2023-05-08T10:20:00.533Z,5.10
2023-05-08T10:22:33.829Z,6.82
2023-05-08T10:25:09.069Z,3.47
2023-05-08T10:27:46.226Z,4.72
2023-05-08T10:30:18.383Z,5.82
2023-05-08T10:32:52.051Z,3.97
2023-05-08T10:35:21.909Z,5.40
2023-05-08T10:37:53.350Z,4.38
2023-05-08T10:40:23.220Z,5.30
2023-05-08T10:42:53.099Z,5.10
2023-05-08T10:48:04.892Z,3.20
2023-05-08T10:50:45.597Z,2.90
2023-05-08T10:53:21.854Z,3.60
2023-05-08T10:55:53.284Z,4.97
2023-05-08T10:58:33.355Z,4.47
2023-05-08T11:01:17.037Z,5.95
2023-05-08T11:03:48.490Z,4.07
2023-05-08T11:06:18.558Z,7.68
2023-05-08T11:08:51.165Z,6.63
2023-05-08T11:11:29.417Z,5.75
2023-05-08T11:14:12.343Z,4.00
2023-05-08T11:17:09.836Z,3.60
2023-05-08T11:19:40.130Z,4.22
2023-05-08T11:22:18.306Z,3.65
2023-05-08T11:24:55.646Z,4.18
2023-05-08T11:28:14.921Z,5.75
2023-05-08T11:30:46.637Z,3.53
2023-05-08T11:33:19.219Z,4.10
2023-05-08T11:35:53.682Z,3.55
2023-05-08T11:38:36.083Z,5.50
2023-05-08T11:41:08.979Z,6.63
2023-05-08T11:44:17.641Z,7.40
2023-05-08T11:46:51.952Z,5.47
2023-05-08T11:49:27.043Z,4.85
2023-05-08T11:52:00.631Z,4.75
2023-05-08T11:54:32.752Z,5.88
2023-05-08T11:57:03.281Z,3.22
2023-05-08T11:59:37.778Z,5.05
2023-05-08T12:02:09.017Z,5.05
2023-05-08T12:04:46.889Z,8.70
2023-05-08T12:07:17.181Z,3.80
2023-05-08T12:09:48.652Z,8.52
2023-05-08T12:12:19.226Z,4.72
2023-05-08T12:14:52.224Z,3.83
2023-05-08T12:17:21.510Z,3.58
2023-05-08T12:19:55.470Z,5.75
2023-05-08T12:22:24.590Z,4.32
2023-05-08T12:24:53.949Z,6.57
2023-05-08T12:27:27.997Z,3.90
2023-05-08T12:29:58.476Z,6.95
2023-05-08T12:32:29.096Z,4.03
2023-05-08T12:34:59.052Z,11.05
2023-05-08T12:37:29.725Z,6.65
2023-05-08T12:39:59.089Z,8.70
2023-05-08T12:42:44.793Z,4.82
2023-05-08T12:45:21.165Z,6.03
2023-05-08T12:47:51.047Z,4.07
2023-05-08T12:50:22.340Z,5.97
2023-05-08T12:52:52.245Z,4.60
2023-05-08T12:55:26.641Z,3.35
2023-05-08T12:58:04.207Z,3.65
2023-05-08T13:00:39.149Z,6.68
2023-05-08T13:03:09.363Z,5.13
2023-05-08T13:05:42.380Z,5.53
2023-05-08T13:08:12.078Z,9.25
2023-05-08T13:13:18.506Z,5.45
2023-05-08T13:15:48.514Z,6.95
2023-05-08T13:18:18.721Z,8.05
2023-05-08T13:20:48.099Z,3.85
2023-05-08T13:23:17.237Z,4.53
2023-05-08T13:25:46.749Z,3.90
2023-05-08T13:28:17.333Z,7.65
2023-05-08T13:30:46.899Z,3.15
2023-05-08T13:33:16.244Z,2.88
2023-05-08T13:35:45.769Z,4.55
2023-05-08T13:38:14.947Z,4.53
2023-05-08T13:40:44.347Z,7.43
2023-05-08T13:43:13.357Z,5.43
2023-05-08T13:45:44.261Z,5.35
2023-05-08T13:48:13.476Z,6.70
2023-05-08T13:50:42.825Z,4.95
2023-05-08T13:53:12.385Z,4.70
2023-05-08T13:58:12.083Z,3.25
2023-05-08T14:03:11.740Z,4.63
2023-05-08T14:05:41.342Z,7.10
2023-05-08T14:08:11.424Z,6.20
2023-05-08T14:10:41.220Z,7.03
2023-05-08T14:13:10.541Z,4.65
2023-05-08T14:15:40.454Z,4.72
2023-05-08T14:18:11.394Z,3.63
2023-05-08T14:20:41.003Z,5.38
2023-05-08T14:23:10.157Z,3.38
2023-05-08T14:25:39.591Z,7.30
2023-05-08T14:28:08.980Z,8.50
2023-05-08T14:30:38.352Z,6.35
2023-05-08T14:33:07.472Z,4.83
2023-05-08T14:35:38.278Z,5.55
2023-05-08T14:38:07.693Z,3.05
2023-05-08T14:40:37.296Z,8.60
2023-05-08T14:43:06.636Z,3.43
2023-05-08T14:45:36.051Z,6.60
2023-05-08T14:48:05.397Z,6.63
2023-05-08T14:50:34.877Z,4.18
2023-05-08T14:53:05.594Z,5.20
2023-05-08T14:55:35.714Z,7.25
2023-05-08T14:58:05.187Z,5.63
2023-05-08T15:00:34.726Z,3.45
2023-05-08T15:03:03.941Z,6.38
2023-05-08T15:05:33.413Z,4.68
2023-05-08T15:08:05.218Z,4.32
2023-05-08T15:10:34.573Z,8.73
2023-05-08T15:13:03.622Z,8.05
2023-05-08T15:15:33.400Z,7.38
2023-05-08T15:18:02.481Z,3.28
2023-05-08T15:20:31.944Z,5.85
2023-05-08T15:23:01.158Z,3.72
2023-05-08T15:25:32.047Z,7.97
2023-05-08T15:28:01.398Z,2.58
2023-05-08T15:30:30.704Z,4.38
2023-05-08T15:32:59.808Z,4.33
2023-05-08T15:35:29.262Z,4.85
2023-05-08T15:37:58.314Z,4.15
2023-05-08T15:40:27.652Z,7.32
2023-05-08T15:42:58.277Z,6.37
2023-05-08T15:45:29.325Z,3.30
2023-05-08T15:48:03.824Z,4.95
2023-05-08T15:50:35.685Z,5.95
2023-05-08T15:53:05.053Z,3.43
2023-05-08T15:55:34.403Z,4.18
2023-05-08T15:58:04.820Z,3.50
2023-05-08T16:00:43.928Z,6.75
2023-05-08T16:03:14.881Z,5.70
